»·PEaware :: N3610E KBUR-KONT

N3610E :: KBUR-KONT

FLIGHT INFORMATION

Flight Status: Arrived
Operator: Privately registered:
United States
More flights under this callsign
Pilot: John Chan (12173)
Aircraft: CESSNA 172 SKYHAWK
(C172)
More flights by this aircraft type
Origin: KBUR Bob Hope-Burbank
United States
Destination: KONT Ontario Intl
United States
More flights between these airports :: More routes between these airports
Route: ELMOO8 ELMOO V186 PDZ
File this flight plan on PilotEdge
Remarks:
Altitude:
(Current/Filed)
5,000ft
Speed:
(Current/Filed)
100kts
Departed: 19-Jun-17 05:01 PM
Arrived: 19-Jun-17 05:44 PM
Distance/Time
Traveled:
39nm/0:43
Distance/Time
To Go:
Arrived

Flight Plot

Page will automatically refresh every two minutes.


Map Options




Map Legend


Flown Route
Filed Route
Departure Airport
Arrival Airport
Navaid (VOR, NDB)
Fix

Horizontal Profiles

Position Reports

Time Latitude Longitude Heading Altitude Ground
Speed
19-Jun-17 16:45 34.196344 -118.367572 358 724ft 0kts
19-Jun-17 16:46 34.196344 -118.367572 358 724ft 0kts
19-Jun-17 16:47 34.196344 -118.367572 358 724ft 0kts
19-Jun-17 16:48 34.196344 -118.367572 358 724ft 0kts
19-Jun-17 16:49 34.196344 -118.367572 358 724ft 0kts
19-Jun-17 16:50 34.196344 -118.367572 358 724ft 0kts
19-Jun-17 16:51 34.196344 -118.367572 358 724ft 0kts
19-Jun-17 16:52 34.196344 -118.367572 358 724ft 0kts
19-Jun-17 16:53 34.196344 -118.367572 358 724ft 0kts
19-Jun-17 16:54 34.196344 -118.367572 358 724ft 0kts
19-Jun-17 16:55 34.196344 -118.367572 358 724ft 0kts
19-Jun-17 16:56 34.196344 -118.367572 358 724ft 0kts
19-Jun-17 16:57 34.196344 -118.367572 358 724ft 0kts
19-Jun-17 16:58 34.196356 -118.367572 358 724ft 1kts
19-Jun-17 16:59 34.196923 -118.368278 269 726ft 9kts
19-Jun-17 17:00 34.197003 -118.368906 305 726ft 0kts
19-Jun-17 17:01 34.197003 -118.368906 305 726ft 0kts
19-Jun-17 17:02 34.197011 -118.368919 303 726ft 1kts
19-Jun-17 17:03 34.197867 -118.366888 95 727ft 47kts
19-Jun-17 17:05 34.195573 -118.342081 133 1546ft 77kts
19-Jun-17 17:06 34.181826 -118.322651 140 2521ft 77kts
19-Jun-17 17:07 34.167523 -118.303171 138 3442ft 79kts
19-Jun-17 17:08 34.158067 -118.279621 105 4211ft 84kts
19-Jun-17 17:09 34.150175 -118.254071 124 4887ft 82kts
19-Jun-17 17:10 34.138873 -118.225600 122 5007ft 101kts
19-Jun-17 17:11 34.126150 -118.195346 118 4960ft 103kts
19-Jun-17 17:12 34.116253 -118.162956 113 4947ft 103kts
19-Jun-17 17:13 34.106009 -118.130752 119 4996ft 103kts
19-Jun-17 17:14 34.096527 -118.098428 110 5041ft 105kts
19-Jun-17 17:15 34.087650 -118.065126 113 5071ft 105kts
19-Jun-17 17:16 34.080052 -118.031213 116 5081ft 105kts
19-Jun-17 17:17 34.068739 -117.998673 117 5074ft 106kts
19-Jun-17 17:18 34.057026 -117.966185 115 5064ft 106kts
19-Jun-17 17:19 34.047066 -117.932424 114 5062ft 108kts
19-Jun-17 17:20 34.036022 -117.899208 116 5054ft 108kts
19-Jun-17 17:21 34.026184 -117.865453 118 5011ft 108kts
19-Jun-17 17:22 34.013882 -117.833394 123 5028ft 103kts
19-Jun-17 17:23 34.001040 -117.802199 118 5043ft 104kts
19-Jun-17 17:24 33.991486 -117.768808 116 5057ft 106kts
19-Jun-17 17:25 33.984444 -117.733288 111 5086ft 107kts
19-Jun-17 17:26 33.976267 -117.697608 109 5109ft 112kts
19-Jun-17 17:27 33.963887 -117.663788 125 5067ft 112kts
19-Jun-17 17:28 33.950195 -117.629920 122 4945ft 115kts
19-Jun-17 17:29 33.939832 -117.593157 120 4886ft 116kts
19-Jun-17 17:30 33.927717 -117.558371 104 4978ft 117kts
19-Jun-17 17:31 33.918480 -117.521558 95 5031ft 119kts
19-Jun-17 17:32 33.936786 -117.490209 66 5089ft 117kts
19-Jun-17 17:33 33.952061 -117.455478 54 5088ft 117kts
19-Jun-17 17:34 33.967540 -117.421619 66 4984ft 117kts
19-Jun-17 17:35 33.982507 -117.388043 59 4988ft 110kts
19-Jun-17 17:36 33.998273 -117.356528 59 5018ft 115kts
19-Jun-17 17:37 34.018672 -117.330209 344 4896ft 117kts
19-Jun-17 17:38 34.045142 -117.346603 324 4669ft 108kts
19-Jun-17 17:39 34.062596 -117.371677 272 4248ft 97kts
19-Jun-17 17:40 34.059146 -117.402889 254 3828ft 93kts
19-Jun-17 17:41 34.056226 -117.432450 270 3355ft 92kts
19-Jun-17 17:42 34.057224 -117.461683 267 2891ft 90kts
19-Jun-17 17:43 34.056580 -117.491315 268 2438ft 90kts
19-Jun-17 17:44 34.057292 -117.520394 268 2008ft 87kts
19-Jun-17 17:45 34.057165 -117.549277 270 1503ft 87kts
19-Jun-17 17:46 34.057006 -117.575913 263 1188ft 57kts
19-Jun-17 17:47 34.056875 -117.588582 272 927ft 8kts
19-Jun-17 17:48 34.057770 -117.589555 0 930ft 0kts
19-Jun-17 17:49 34.058005 -117.591370 269 931ft 12kts
19-Jun-17 17:50 34.058692 -117.595552 351 933ft 14kts
19-Jun-17 17:51 34.059153 -117.595561 350 934ft 0kts
19-Jun-17 17:52 34.059153 -117.595561 350 934ft 0kts
19-Jun-17 17:53 34.059153 -117.595561 350 934ft 0kts
19-Jun-17 17:54 34.059153 -117.595561 350 934ft 0kts
19-Jun-17 17:55 34.059153 -117.595561 350 934ft 0kts
19-Jun-17 17:56 34.059153 -117.595561 350 934ft 0kts
19-Jun-17 17:57 34.059153 -117.595561 350 934ft 0kts
19-Jun-17 17:58 34.059153 -117.595561 350 934ft 0kts
19-Jun-17 17:59 34.059153 -117.595561 350 934ft 0kts
19-Jun-17 18:00 34.059153 -117.595561 350 934ft 0kts
19-Jun-17 18:01 34.059153 -117.595561 350 934ft 0kts

Navigation Log

Ident Type
1. KBUR Airport
2. ELMOO Fix
3. ITSME Fix
4. PIRRO Fix
5. ADAMM Fix
6. BAYJY Fix
7. TIFNI Fix
8. PDZ Navaid
9. KONT Airport